sensor_id;sensor_type;location;lat;lon;timestamp;P1;durP1;ratioP1;P2;durP2;ratioP2
40154;SDS011;25875;48.202;16.334;2022-08-02T00:00:28;9.18;;;5.25;;
40154;SDS011;25875;48.202;16.334;2022-08-02T00:02:56;9.05;;;6.18;;
40154;SDS011;25875;48.202;16.334;2022-08-02T00:05:23;6.05;;;4.70;;
40154;SDS011;25875;48.202;16.334;2022-08-02T00:07:50;9.50;;;5.85;;
40154;SDS011;25875;48.202;16.334;2022-08-02T00:10:19;22.00;;;10.30;;
40154;SDS011;25875;48.202;16.334;2022-08-02T00:12:46;14.20;;;8.48;;
40154;SDS011;25875;48.202;16.334;2022-08-02T00:15:13;7.65;;;4.70;;
40154;SDS011;25875;48.202;16.334;2022-08-02T00:17:40;5.68;;;3.65;;
40154;SDS011;25875;48.202;16.334;2022-08-02T00:20:08;3.53;;;2.55;;
40154;SDS011;25875;48.202;16.334;2022-08-02T00:22:37;5.32;;;3.22;;
40154;SDS011;25875;48.202;16.334;2022-08-02T00:25:04;5.60;;;3.78;;
40154;SDS011;25875;48.202;16.334;2022-08-02T00:27:34;5.13;;;3.08;;
40154;SDS011;25875;48.202;16.334;2022-08-02T00:30:01;6.13;;;3.35;;
40154;SDS011;25875;48.202;16.334;2022-08-02T00:32:29;3.80;;;2.47;;
40154;SDS011;25875;48.202;16.334;2022-08-02T00:34:56;4.57;;;3.33;;
40154;SDS011;25875;48.202;16.334;2022-08-02T00:37:23;8.10;;;7.22;;
40154;SDS011;25875;48.202;16.334;2022-08-02T00:39:50;10.35;;;9.00;;
40154;SDS011;25875;48.202;16.334;2022-08-02T00:42:19;5.50;;;4.22;;
40154;SDS011;25875;48.202;16.334;2022-08-02T00:44:47;4.57;;;3.20;;
40154;SDS011;25875;48.202;16.334;2022-08-02T00:47:14;6.15;;;4.15;;
40154;SDS011;25875;48.202;16.334;2022-08-02T00:49:42;4.57;;;3.00;;
40154;SDS011;25875;48.202;16.334;2022-08-02T00:58:36;3.25;;;2.10;;
40154;SDS011;25875;48.202;16.334;2022-08-02T01:01:05;2.80;;;1.80;;
40154;SDS011;25875;48.202;16.334;2022-08-02T01:03:32;2.78;;;1.85;;
40154;SDS011;25875;48.202;16.334;2022-08-02T01:05:59;2.92;;;2.03;;
40154;SDS011;25875;48.202;16.334;2022-08-02T01:08:27;2.60;;;1.70;;
40154;SDS011;25875;48.202;16.334;2022-08-02T01:10:54;1.90;;;1.30;;
40154;SDS011;25875;48.202;16.334;2022-08-02T01:13:21;4.55;;;1.75;;
40154;SDS011;25875;48.202;16.334;2022-08-02T01:15:51;3.50;;;2.58;;
40154;SDS011;25875;48.202;16.334;2022-08-02T01:18:27;4.57;;;3.45;;
40154;SDS011;25875;48.202;16.334;2022-08-02T01:23:58;4.32;;;2.97;;
40154;SDS011;25875;48.202;16.334;2022-08-02T01:26:37;5.35;;;3.78;;
40154;SDS011;25875;48.202;16.334;2022-08-02T01:29:11;4.65;;;3.88;;
40154;SDS011;25875;48.202;16.334;2022-08-02T01:31:45;3.97;;;2.70;;
40154;SDS011;25875;48.202;16.334;2022-08-02T01:34:17;5.47;;;2.42;;
40154;SDS011;25875;48.202;16.334;2022-08-02T01:36:48;2.78;;;1.70;;
40154;SDS011;25875;48.202;16.334;2022-08-02T01:39:22;2.30;;;1.42;;
40154;SDS011;25875;48.202;16.334;2022-08-02T01:41:53;2.30;;;1.65;;
40154;SDS011;25875;48.202;16.334;2022-08-02T01:44:24;2.78;;;1.83;;
40154;SDS011;25875;48.202;16.334;2022-08-02T01:46:55;2.58;;;1.52;;
40154;SDS011;25875;48.202;16.334;2022-08-02T01:49:24;2.40;;;1.50;;
40154;SDS011;25875;48.202;16.334;2022-08-02T01:51:54;2.40;;;1.60;;
40154;SDS011;25875;48.202;16.334;2022-08-02T01:54:41;4.70;;;2.72;;
40154;SDS011;25875;48.202;16.334;2022-08-02T01:57:11;3.85;;;2.58;;
40154;SDS011;25875;48.202;16.334;2022-08-02T01:59:41;5.50;;;4.78;;
40154;SDS011;25875;48.202;16.334;2022-08-02T02:02:11;5.55;;;4.15;;
40154;SDS011;25875;48.202;16.334;2022-08-02T02:04:42;4.38;;;3.13;;
40154;SDS011;25875;48.202;16.334;2022-08-02T02:07:12;4.65;;;3.58;;
40154;SDS011;25875;48.202;16.334;2022-08-02T02:09:41;4.22;;;2.95;;
40154;SDS011;25875;48.202;16.334;2022-08-02T02:12:10;4.10;;;2.70;;
40154;SDS011;25875;48.202;16.334;2022-08-02T02:14:42;3.85;;;2.20;;
40154;SDS011;25875;48.202;16.334;2022-08-02T02:17:10;3.05;;;1.90;;
40154;SDS011;25875;48.202;16.334;2022-08-02T02:19:39;2.65;;;1.35;;
40154;SDS011;25875;48.202;16.334;2022-08-02T02:22:07;3.00;;;1.80;;
40154;SDS011;25875;48.202;16.334;2022-08-02T02:24:35;4.50;;;3.30;;
40154;SDS011;25875;48.202;16.334;2022-08-02T02:27:02;5.80;;;4.40;;
40154;SDS011;25875;48.202;16.334;2022-08-02T02:29:33;4.53;;;3.22;;
40154;SDS011;25875;48.202;16.334;2022-08-02T02:32:04;5.50;;;4.30;;
40154;SDS011;25875;48.202;16.334;2022-08-02T02:34:33;4.30;;;3.15;;
40154;SDS011;25875;48.202;16.334;2022-08-02T02:37:04;4.32;;;2.65;;
40154;SDS011;25875;48.202;16.334;2022-08-02T02:39:34;3.00;;;1.90;;
40154;SDS011;25875;48.202;16.334;2022-08-02T02:42:03;2.08;;;1.40;;
40154;SDS011;25875;48.202;16.334;2022-08-02T02:44:34;2.72;;;1.40;;
40154;SDS011;25875;48.202;16.334;2022-08-02T02:47:06;2.40;;;1.50;;
40154;SDS011;25875;48.202;16.334;2022-08-02T02:49:36;2.50;;;1.60;;
40154;SDS011;25875;48.202;16.334;2022-08-02T02:52:05;2.35;;;1.58;;
40154;SDS011;25875;48.202;16.334;2022-08-02T02:54:33;2.45;;;1.70;;
40154;SDS011;25875;48.202;16.334;2022-08-02T02:57:03;2.10;;;1.27;;
40154;SDS011;25875;48.202;16.334;2022-08-02T02:59:32;2.40;;;1.45;;
40154;SDS011;25875;48.202;16.334;2022-08-02T03:02:00;2.00;;;1.30;;
40154;SDS011;25875;48.202;16.334;2022-08-02T03:04:30;3.67;;;1.60;;
40154;SDS011;25875;48.202;16.334;2022-08-02T03:06:58;2.33;;;1.42;;
40154;SDS011;25875;48.202;16.334;2022-08-02T03:09:26;3.10;;;1.60;;
40154;SDS011;25875;48.202;16.334;2022-08-02T03:11:53;2.40;;;1.52;;
40154;SDS011;25875;48.202;16.334;2022-08-02T03:14:21;3.15;;;1.95;;
40154;SDS011;25875;48.202;16.334;2022-08-02T03:16:49;2.70;;;1.45;;
40154;SDS011;25875;48.202;16.334;2022-08-02T03:19:20;2.60;;;1.70;;
40154;SDS011;25875;48.202;16.334;2022-08-02T03:21:50;2.30;;;1.58;;
40154;SDS011;25875;48.202;16.334;2022-08-02T03:24:19;2.88;;;1.75;;
40154;SDS011;25875;48.202;16.334;2022-08-02T03:26:46;4.35;;;1.85;;
40154;SDS011;25875;48.202;16.334;2022-08-02T03:29:13;2.67;;;2.05;;
40154;SDS011;25875;48.202;16.334;2022-08-02T03:31:41;3.15;;;1.70;;
40154;SDS011;25875;48.202;16.334;2022-08-02T03:34:11;4.55;;;3.50;;
40154;SDS011;25875;48.202;16.334;2022-08-02T03:36:39;7.78;;;5.95;;
40154;SDS011;25875;48.202;16.334;2022-08-02T03:39:09;6.20;;;5.10;;
40154;SDS011;25875;48.202;16.334;2022-08-02T03:41:38;7.68;;;6.32;;
40154;SDS011;25875;48.202;16.334;2022-08-02T03:44:06;7.35;;;5.63;;
40154;SDS011;25875;48.202;16.334;2022-08-02T03:46:36;6.63;;;4.70;;
40154;SDS011;25875;48.202;16.334;2022-08-02T03:49:05;4.50;;;2.97;;
40154;SDS011;25875;48.202;16.334;2022-08-02T03:51:34;5.25;;;2.38;;
40154;SDS011;25875;48.202;16.334;2022-08-02T03:54:01;6.20;;;3.28;;
40154;SDS011;25875;48.202;16.334;2022-08-02T03:56:30;4.85;;;4.25;;
40154;SDS011;25875;48.202;16.334;2022-08-02T03:59:04;3.88;;;3.08;;
40154;SDS011;25875;48.202;16.334;2022-08-02T04:01:32;5.13;;;3.95;;
40154;SDS011;25875;48.202;16.334;2022-08-02T04:04:00;3.72;;;2.63;;
40154;SDS011;25875;48.202;16.334;2022-08-02T04:06:27;4.03;;;2.65;;
40154;SDS011;25875;48.202;16.334;2022-08-02T04:08:54;6.50;;;3.83;;
40154;SDS011;25875;48.202;16.334;2022-08-02T04:11:22;5.97;;;3.70;;
40154;SDS011;25875;48.202;16.334;2022-08-02T04:14:02;4.00;;;3.22;;
40154;SDS011;25875;48.202;16.334;2022-08-02T04:16:36;4.50;;;3.45;;
40154;SDS011;25875;48.202;16.334;2022-08-02T04:19:07;4.07;;;3.10;;
40154;SDS011;25875;48.202;16.334;2022-08-02T04:21:38;9.68;;;6.40;;
40154;SDS011;25875;48.202;16.334;2022-08-02T04:24:07;8.85;;;6.43;;
40154;SDS011;25875;48.202;16.334;2022-08-02T04:26:35;6.78;;;5.32;;
40154;SDS011;25875;48.202;16.334;2022-08-02T04:29:05;9.18;;;7.32;;
40154;SDS011;25875;48.202;16.334;2022-08-02T04:31:32;7.53;;;5.55;;
40154;SDS011;25875;48.202;16.334;2022-08-02T04:34:01;4.47;;;3.55;;
40154;SDS011;25875;48.202;16.334;2022-08-02T04:36:29;5.82;;;4.10;;
40154;SDS011;25875;48.202;16.334;2022-08-02T04:38:57;3.33;;;2.70;;
40154;SDS011;25875;48.202;16.334;2022-08-02T04:41:35;9.95;;;2.50;;
40154;SDS011;25875;48.202;16.334;2022-08-02T04:44:04;3.67;;;2.20;;
40154;SDS011;25875;48.202;16.334;2022-08-02T04:46:31;3.20;;;2.10;;
40154;SDS011;25875;48.202;16.334;2022-08-02T04:48:59;4.57;;;3.28;;
40154;SDS011;25875;48.202;16.334;2022-08-02T04:51:26;4.00;;;3.38;;
40154;SDS011;25875;48.202;16.334;2022-08-02T04:53:53;6.25;;;4.38;;
40154;SDS011;25875;48.202;16.334;2022-08-02T04:56:21;5.53;;;3.42;;
40154;SDS011;25875;48.202;16.334;2022-08-02T04:58:48;3.67;;;2.70;;
40154;SDS011;25875;48.202;16.334;2022-08-02T05:01:16;3.65;;;2.53;;
40154;SDS011;25875;48.202;16.334;2022-08-02T05:03:43;2.88;;;2.10;;
40154;SDS011;25875;48.202;16.334;2022-08-02T05:06:11;3.63;;;2.20;;
40154;SDS011;25875;48.202;16.334;2022-08-02T05:08:38;3.35;;;2.25;;
40154;SDS011;25875;48.202;16.334;2022-08-02T05:11:05;2.78;;;1.75;;
40154;SDS011;25875;48.202;16.334;2022-08-02T05:13:32;2.70;;;1.95;;
40154;SDS011;25875;48.202;16.334;2022-08-02T05:15:59;3.63;;;2.17;;
40154;SDS011;25875;48.202;16.334;2022-08-02T05:18:30;3.17;;;1.77;;
40154;SDS011;25875;48.202;16.334;2022-08-02T05:20:57;4.43;;;2.03;;
40154;SDS011;25875;48.202;16.334;2022-08-02T05:23:25;3.75;;;1.83;;
40154;SDS011;25875;48.202;16.334;2022-08-02T05:25:52;2.88;;;2.13;;
40154;SDS011;25875;48.202;16.334;2022-08-02T05:28:20;4.97;;;2.58;;
40154;SDS011;25875;48.202;16.334;2022-08-02T05:30:47;5.13;;;2.20;;
40154;SDS011;25875;48.202;16.334;2022-08-02T05:33:14;3.15;;;1.92;;
40154;SDS011;25875;48.202;16.334;2022-08-02T05:35:44;2.70;;;1.88;;
40154;SDS011;25875;48.202;16.334;2022-08-02T05:38:11;3.47;;;1.70;;
40154;SDS011;25875;48.202;16.334;2022-08-02T05:40:38;2.78;;;1.77;;
40154;SDS011;25875;48.202;16.334;2022-08-02T05:43:10;4.00;;;2.00;;
40154;SDS011;25875;48.202;16.334;2022-08-02T05:45:37;3.72;;;2.20;;
40154;SDS011;25875;48.202;16.334;2022-08-02T05:48:05;3.10;;;2.13;;
40154;SDS011;25875;48.202;16.334;2022-08-02T05:50:33;3.47;;;2.67;;
40154;SDS011;25875;48.202;16.334;2022-08-02T05:53:12;3.38;;;2.70;;
40154;SDS011;25875;48.202;16.334;2022-08-02T05:55:46;4.13;;;3.15;;
40154;SDS011;25875;48.202;16.334;2022-08-02T05:58:19;5.68;;;2.90;;
40154;SDS011;25875;48.202;16.334;2022-08-02T06:00:50;3.08;;;2.05;;
40154;SDS011;25875;48.202;16.334;2022-08-02T06:03:22;4.30;;;3.53;;
40154;SDS011;25875;48.202;16.334;2022-08-02T06:05:53;7.35;;;3.10;;
40154;SDS011;25875;48.202;16.334;2022-08-02T06:08:30;3.90;;;2.83;;
40154;SDS011;25875;48.202;16.334;2022-08-02T06:11:00;3.17;;;2.30;;
40154;SDS011;25875;48.202;16.334;2022-08-02T06:13:28;3.67;;;2.25;;
40154;SDS011;25875;48.202;16.334;2022-08-02T06:15:55;3.78;;;2.63;;
40154;SDS011;25875;48.202;16.334;2022-08-02T06:18:25;3.33;;;2.10;;
40154;SDS011;25875;48.202;16.334;2022-08-02T06:20:53;2.95;;;2.25;;
40154;SDS011;25875;48.202;16.334;2022-08-02T06:23:22;3.33;;;2.42;;
40154;SDS011;25875;48.202;16.334;2022-08-02T06:25:53;3.90;;;2.80;;
40154;SDS011;25875;48.202;16.334;2022-08-02T06:28:23;3.70;;;2.88;;
40154;SDS011;25875;48.202;16.334;2022-08-02T06:30:52;3.00;;;2.17;;
40154;SDS011;25875;48.202;16.334;2022-08-02T06:33:22;3.38;;;2.45;;
40154;SDS011;25875;48.202;16.334;2022-08-02T06:35:51;4.75;;;2.28;;
40154;SDS011;25875;48.202;16.334;2022-08-02T06:38:27;3.30;;;2.10;;
40154;SDS011;25875;48.202;16.334;2022-08-02T06:41:02;3.60;;;2.28;;
40154;SDS011;25875;48.202;16.334;2022-08-02T06:43:33;3.50;;;2.05;;
40154;SDS011;25875;48.202;16.334;2022-08-02T06:46:08;3.97;;;2.60;;
40154;SDS011;25875;48.202;16.334;2022-08-02T06:48:35;3.35;;;2.47;;
40154;SDS011;25875;48.202;16.334;2022-08-02T06:51:03;3.33;;;2.75;;
40154;SDS011;25875;48.202;16.334;2022-08-02T06:53:31;3.05;;;2.30;;
40154;SDS011;25875;48.202;16.334;2022-08-02T06:55:58;5.10;;;2.75;;
40154;SDS011;25875;48.202;16.334;2022-08-02T06:58:27;2.97;;;2.20;;
40154;SDS011;25875;48.202;16.334;2022-08-02T07:00:54;4.72;;;2.50;;
40154;SDS011;25875;48.202;16.334;2022-08-02T07:03:21;4.50;;;2.17;;
40154;SDS011;25875;48.202;16.334;2022-08-02T07:05:50;3.92;;;2.53;;
40154;SDS011;25875;48.202;16.334;2022-08-02T07:08:18;3.47;;;2.83;;
40154;SDS011;25875;48.202;16.334;2022-08-02T07:10:45;4.45;;;2.50;;
40154;SDS011;25875;48.202;16.334;2022-08-02T07:13:12;3.78;;;2.75;;
40154;SDS011;25875;48.202;16.334;2022-08-02T07:15:41;4.30;;;3.08;;
40154;SDS011;25875;48.202;16.334;2022-08-02T07:18:08;5.95;;;3.63;;
40154;SDS011;25875;48.202;16.334;2022-08-02T07:20:39;2.83;;;2.25;;
40154;SDS011;25875;48.202;16.334;2022-08-02T07:23:07;6.15;;;3.47;;
40154;SDS011;25875;48.202;16.334;2022-08-02T07:25:34;3.67;;;2.67;;
40154;SDS011;25875;48.202;16.334;2022-08-02T07:28:02;3.45;;;2.67;;
40154;SDS011;25875;48.202;16.334;2022-08-02T07:30:29;3.70;;;3.08;;
40154;SDS011;25875;48.202;16.334;2022-08-02T07:32:59;4.00;;;3.10;;
40154;SDS011;25875;48.202;16.334;2022-08-02T07:35:26;3.22;;;2.50;;
40154;SDS011;25875;48.202;16.334;2022-08-02T07:37:53;3.33;;;2.67;;
40154;SDS011;25875;48.202;16.334;2022-08-02T07:40:21;4.30;;;2.45;;
40154;SDS011;25875;48.202;16.334;2022-08-02T07:42:49;4.65;;;2.20;;
40154;SDS011;25875;48.202;16.334;2022-08-02T07:45:18;2.83;;;2.05;;
40154;SDS011;25875;48.202;16.334;2022-08-02T07:47:47;6.40;;;2.13;;
40154;SDS011;25875;48.202;16.334;2022-08-02T07:50:16;3.33;;;2.17;;
40154;SDS011;25875;48.202;16.334;2022-08-02T07:52:45;2.67;;;1.95;;
40154;SDS011;25875;48.202;16.334;2022-08-02T07:55:15;3.63;;;2.20;;
40154;SDS011;25875;48.202;16.334;2022-08-02T07:57:43;3.92;;;2.40;;
40154;SDS011;25875;48.202;16.334;2022-08-02T08:00:12;3.78;;;2.40;;
40154;SDS011;25875;48.202;16.334;2022-08-02T08:02:41;4.03;;;2.47;;
40154;SDS011;25875;48.202;16.334;2022-08-02T08:05:09;5.90;;;2.63;;
40154;SDS011;25875;48.202;16.334;2022-08-02T08:07:38;2.92;;;2.00;;
40154;SDS011;25875;48.202;16.334;2022-08-02T08:10:06;5.60;;;2.45;;
40154;SDS011;25875;48.202;16.334;2022-08-02T08:12:34;4.80;;;2.60;;
40154;SDS011;25875;48.202;16.334;2022-08-02T08:15:02;3.65;;;2.45;;
40154;SDS011;25875;48.202;16.334;2022-08-02T08:17:30;3.20;;;2.38;;
40154;SDS011;25875;48.202;16.334;2022-08-02T08:19:57;2.90;;;2.08;;
40154;SDS011;25875;48.202;16.334;2022-08-02T08:22:24;2.58;;;1.98;;
40154;SDS011;25875;48.202;16.334;2022-08-02T08:24:53;3.38;;;2.40;;
40154;SDS011;25875;48.202;16.334;2022-08-02T08:27:20;4.30;;;2.50;;
40154;SDS011;25875;48.202;16.334;2022-08-02T08:29:48;2.65;;;2.13;;
40154;SDS011;25875;48.202;16.334;2022-08-02T08:32:15;3.58;;;2.45;;
40154;SDS011;25875;48.202;16.334;2022-08-02T08:34:43;3.38;;;2.42;;
40154;SDS011;25875;48.202;16.334;2022-08-02T08:37:11;5.72;;;2.25;;
40154;SDS011;25875;48.202;16.334;2022-08-02T08:39:38;2.83;;;2.05;;
40154;SDS011;25875;48.202;16.334;2022-08-02T08:42:07;2.75;;;2.05;;
40154;SDS011;25875;48.202;16.334;2022-08-02T08:44:34;3.67;;;2.58;;
40154;SDS011;25875;48.202;16.334;2022-08-02T08:47:03;3.72;;;2.42;;
40154;SDS011;25875;48.202;16.334;2022-08-02T08:49:31;3.47;;;2.47;;
40154;SDS011;25875;48.202;16.334;2022-08-02T08:52:03;3.67;;;2.90;;
40154;SDS011;25875;48.202;16.334;2022-08-02T08:54:32;4.10;;;2.83;;
40154;SDS011;25875;48.202;16.334;2022-08-02T08:57:03;3.20;;;2.42;;
40154;SDS011;25875;48.202;16.334;2022-08-02T08:59:32;3.15;;;2.40;;
40154;SDS011;25875;48.202;16.334;2022-08-02T09:02:00;2.88;;;2.30;;
40154;SDS011;25875;48.202;16.334;2022-08-02T09:04:28;3.13;;;2.40;;
40154;SDS011;25875;48.202;16.334;2022-08-02T09:06:56;3.15;;;2.42;;
40154;SDS011;25875;48.202;16.334;2022-08-02T09:09:23;3.13;;;2.50;;
40154;SDS011;25875;48.202;16.334;2022-08-02T09:11:50;3.38;;;2.40;;
40154;SDS011;25875;48.202;16.334;2022-08-02T09:14:24;4.32;;;2.75;;
40154;SDS011;25875;48.202;16.334;2022-08-02T09:16:54;4.32;;;2.40;;
40154;SDS011;25875;48.202;16.334;2022-08-02T09:19:32;2.97;;;2.25;;
40154;SDS011;25875;48.202;16.334;2022-08-02T09:22:03;10.88;;;2.80;;
40154;SDS011;25875;48.202;16.334;2022-08-02T09:24:39;3.00;;;2.45;;
40154;SDS011;25875;48.202;16.334;2022-08-02T09:27:09;3.30;;;2.35;;
40154;SDS011;25875;48.202;16.334;2022-08-02T09:29:37;2.97;;;2.30;;
40154;SDS011;25875;48.202;16.334;2022-08-02T09:32:06;4.28;;;2.33;;
40154;SDS011;25875;48.202;16.334;2022-08-02T09:34:43;2.85;;;2.17;;
40154;SDS011;25875;48.202;16.334;2022-08-02T09:37:20;2.90;;;2.20;;
40154;SDS011;25875;48.202;16.334;2022-08-02T09:39:48;3.42;;;2.50;;
40154;SDS011;25875;48.202;16.334;2022-08-02T09:42:16;3.00;;;2.35;;
40154;SDS011;25875;48.202;16.334;2022-08-02T09:44:51;3.53;;;2.42;;
40154;SDS011;25875;48.202;16.334;2022-08-02T09:47:21;3.05;;;2.13;;
40154;SDS011;25875;48.202;16.334;2022-08-02T09:49:49;3.20;;;2.38;;
40154;SDS011;25875;48.202;16.334;2022-08-02T09:52:20;4.05;;;2.13;;
40154;SDS011;25875;48.202;16.334;2022-08-02T09:54:49;3.00;;;1.95;;
40154;SDS011;25875;48.202;16.334;2022-08-02T09:57:23;3.60;;;2.10;;
40154;SDS011;25875;48.202;16.334;2022-08-02T09:59:52;3.55;;;2.35;;
40154;SDS011;25875;48.202;16.334;2022-08-02T10:02:23;3.20;;;2.10;;
40154;SDS011;25875;48.202;16.334;2022-08-02T10:04:51;2.78;;;1.88;;
40154;SDS011;25875;48.202;16.334;2022-08-02T10:07:18;3.75;;;2.08;;
40154;SDS011;25875;48.202;16.334;2022-08-02T10:09:46;2.97;;;2.13;;
40154;SDS011;25875;48.202;16.334;2022-08-02T10:12:14;2.50;;;1.80;;
40154;SDS011;25875;48.202;16.334;2022-08-02T10:14:42;2.78;;;2.08;;
40154;SDS011;25875;48.202;16.334;2022-08-02T10:17:11;2.88;;;1.90;;
40154;SDS011;25875;48.202;16.334;2022-08-02T10:19:42;2.78;;;2.08;;
40154;SDS011;25875;48.202;16.334;2022-08-02T10:22:10;4.47;;;2.13;;
40154;SDS011;25875;48.202;16.334;2022-08-02T10:24:40;3.78;;;1.95;;
40154;SDS011;25875;48.202;16.334;2022-08-02T10:27:12;2.33;;;1.80;;
40154;SDS011;25875;48.202;16.334;2022-08-02T10:29:42;3.90;;;2.50;;
40154;SDS011;25875;48.202;16.334;2022-08-02T10:32:14;3.10;;;2.10;;
40154;SDS011;25875;48.202;16.334;2022-08-02T10:34:50;2.92;;;2.30;;
40154;SDS011;25875;48.202;16.334;2022-08-02T10:37:21;3.10;;;2.20;;
40154;SDS011;25875;48.202;16.334;2022-08-02T10:39:54;3.47;;;2.38;;
40154;SDS011;25875;48.202;16.334;2022-08-02T10:45:12;3.35;;;2.45;;
40154;SDS011;25875;48.202;16.334;2022-08-02T10:47:55;3.35;;;2.33;;
40154;SDS011;25875;48.202;16.334;2022-08-02T10:53:29;3.30;;;2.22;;
40154;SDS011;25875;48.202;16.334;2022-08-02T10:55:58;3.80;;;2.03;;
40154;SDS011;25875;48.202;16.334;2022-08-02T10:58:28;2.50;;;1.70;;
40154;SDS011;25875;48.202;16.334;2022-08-02T11:00:57;2.92;;;1.98;;
40154;SDS011;25875;48.202;16.334;2022-08-02T11:03:33;3.65;;;2.10;;
40154;SDS011;25875;48.202;16.334;2022-08-02T11:06:05;2.47;;;1.63;;
40154;SDS011;25875;48.202;16.334;2022-08-02T11:08:35;3.70;;;2.30;;
40154;SDS011;25875;48.202;16.334;2022-08-02T11:11:14;3.42;;;1.80;;
40154;SDS011;25875;48.202;16.334;2022-08-02T11:13:58;2.55;;;1.80;;
40154;SDS011;25875;48.202;16.334;2022-08-02T11:19:33;3.47;;;2.20;;
40154;SDS011;25875;48.202;16.334;2022-08-02T11:22:02;2.85;;;1.88;;
40154;SDS011;25875;48.202;16.334;2022-08-02T11:24:33;2.67;;;1.80;;
40154;SDS011;25875;48.202;16.334;2022-08-02T11:27:01;3.42;;;1.83;;
40154;SDS011;25875;48.202;16.334;2022-08-02T11:29:31;3.65;;;1.98;;
40154;SDS011;25875;48.202;16.334;2022-08-02T11:31:58;4.03;;;1.90;;
40154;SDS011;25875;48.202;16.334;2022-08-02T11:34:26;6.53;;;2.35;;
40154;SDS011;25875;48.202;16.334;2022-08-02T11:36:54;3.88;;;1.80;;
40154;SDS011;25875;48.202;16.334;2022-08-02T11:39:22;2.78;;;1.55;;
40154;SDS011;25875;48.202;16.334;2022-08-02T11:41:52;2.50;;;1.80;;
40154;SDS011;25875;48.202;16.334;2022-08-02T11:44:21;2.40;;;1.50;;
40154;SDS011;25875;48.202;16.334;2022-08-02T11:46:52;2.90;;;1.67;;
40154;SDS011;25875;48.202;16.334;2022-08-02T11:49:20;2.80;;;1.90;;
40154;SDS011;25875;48.202;16.334;2022-08-02T11:51:54;2.15;;;1.50;;
40154;SDS011;25875;48.202;16.334;2022-08-02T11:54:26;2.97;;;1.92;;
40154;SDS011;25875;48.202;16.334;2022-08-02T11:57:08;2.20;;;1.55;;
40154;SDS011;25875;48.202;16.334;2022-08-02T11:59:37;3.35;;;1.90;;
40154;SDS011;25875;48.202;16.334;2022-08-02T12:02:05;4.38;;;1.80;;
40154;SDS011;25875;48.202;16.334;2022-08-02T12:04:33;2.92;;;1.77;;
40154;SDS011;25875;48.202;16.334;2022-08-02T12:07:02;3.10;;;1.98;;
40154;SDS011;25875;48.202;16.334;2022-08-02T12:09:31;4.40;;;2.08;;
40154;SDS011;25875;48.202;16.334;2022-08-02T12:12:01;2.63;;;1.90;;
40154;SDS011;25875;48.202;16.334;2022-08-02T12:14:31;3.05;;;1.45;;
40154;SDS011;25875;48.202;16.334;2022-08-02T12:17:07;2.63;;;1.55;;
40154;SDS011;25875;48.202;16.334;2022-08-02T12:19:51;2.97;;;1.80;;
40154;SDS011;25875;48.202;16.334;2022-08-02T12:22:22;2.55;;;1.90;;
40154;SDS011;25875;48.202;16.334;2022-08-02T12:24:50;2.53;;;1.70;;
40154;SDS011;25875;48.202;16.334;2022-08-02T12:27:28;2.60;;;1.55;;
40154;SDS011;25875;48.202;16.334;2022-08-02T12:29:59;3.22;;;2.45;;
40154;SDS011;25875;48.202;16.334;2022-08-02T12:32:28;3.03;;;2.33;;
40154;SDS011;25875;48.202;16.334;2022-08-02T12:35:00;5.57;;;2.53;;
40154;SDS011;25875;48.202;16.334;2022-08-02T12:37:29;3.28;;;2.70;;
40154;SDS011;25875;48.202;16.334;2022-08-02T12:39:56;5.30;;;2.85;;
40154;SDS011;25875;48.202;16.334;2022-08-02T12:42:24;3.72;;;2.35;;
40154;SDS011;25875;48.202;16.334;2022-08-02T12:44:52;2.70;;;1.80;;
40154;SDS011;25875;48.202;16.334;2022-08-02T12:47:24;2.60;;;1.75;;
40154;SDS011;25875;48.202;16.334;2022-08-02T12:52:39;3.92;;;2.80;;
40154;SDS011;25875;48.202;16.334;2022-08-02T12:55:16;3.38;;;2.47;;
40154;SDS011;25875;48.202;16.334;2022-08-02T12:57:53;3.20;;;2.38;;
40154;SDS011;25875;48.202;16.334;2022-08-02T13:00:22;2.90;;;2.17;;
40154;SDS011;25875;48.202;16.334;2022-08-02T13:02:52;2.80;;;1.88;;
40154;SDS011;25875;48.202;16.334;2022-08-02T13:05:20;3.30;;;1.90;;
40154;SDS011;25875;48.202;16.334;2022-08-02T13:07:47;2.75;;;1.90;;
40154;SDS011;25875;48.202;16.334;2022-08-02T13:10:15;2.95;;;1.83;;
40154;SDS011;25875;48.202;16.334;2022-08-02T13:12:43;4.22;;;2.53;;
40154;SDS011;25875;48.202;16.334;2022-08-02T13:15:10;3.38;;;2.30;;
40154;SDS011;25875;48.202;16.334;2022-08-02T13:17:38;4.20;;;3.38;;
40154;SDS011;25875;48.202;16.334;2022-08-02T13:20:08;3.55;;;2.75;;
40154;SDS011;25875;48.202;16.334;2022-08-02T13:22:36;4.03;;;2.90;;
40154;SDS011;25875;48.202;16.334;2022-08-02T13:25:04;3.65;;;2.88;;
40154;SDS011;25875;48.202;16.334;2022-08-02T13:27:31;5.93;;;2.75;;
40154;SDS011;25875;48.202;16.334;2022-08-02T13:29:59;4.97;;;3.35;;
40154;SDS011;25875;48.202;16.334;2022-08-02T13:32:27;3.97;;;2.88;;
40154;SDS011;25875;48.202;16.334;2022-08-02T13:34:54;7.55;;;6.43;;
40154;SDS011;25875;48.202;16.334;2022-08-02T13:37:24;6.22;;;4.07;;
40154;SDS011;25875;48.202;16.334;2022-08-02T13:39:51;5.32;;;3.90;;
40154;SDS011;25875;48.202;16.334;2022-08-02T13:42:19;7.15;;;5.25;;
40154;SDS011;25875;48.202;16.334;2022-08-02T13:44:46;5.15;;;3.88;;
40154;SDS011;25875;48.202;16.334;2022-08-02T13:47:13;5.45;;;3.83;;
40154;SDS011;25875;48.202;16.334;2022-08-02T13:49:41;3.97;;;3.35;;
40154;SDS011;25875;48.202;16.334;2022-08-02T13:52:09;4.32;;;3.30;;
40154;SDS011;25875;48.202;16.334;2022-08-02T13:54:37;3.30;;;2.38;;
40154;SDS011;25875;48.202;16.334;2022-08-02T13:57:05;3.78;;;2.90;;
40154;SDS011;25875;48.202;16.334;2022-08-02T13:59:32;3.33;;;2.55;;
40154;SDS011;25875;48.202;16.334;2022-08-02T14:02:00;3.10;;;2.20;;
40154;SDS011;25875;48.202;16.334;2022-08-02T14:04:27;3.97;;;2.90;;
40154;SDS011;25875;48.202;16.334;2022-08-02T14:06:55;4.53;;;2.70;;
40154;SDS011;25875;48.202;16.334;2022-08-02T14:09:23;3.80;;;2.60;;
40154;SDS011;25875;48.202;16.334;2022-08-02T14:11:52;3.30;;;2.17;;
40154;SDS011;25875;48.202;16.334;2022-08-02T14:14:19;3.67;;;2.22;;
40154;SDS011;25875;48.202;16.334;2022-08-02T14:16:46;4.50;;;2.42;;
40154;SDS011;25875;48.202;16.334;2022-08-02T14:19:14;2.63;;;1.70;;
40154;SDS011;25875;48.202;16.334;2022-08-02T14:21:41;3.47;;;2.17;;
40154;SDS011;25875;48.202;16.334;2022-08-02T14:24:08;3.50;;;2.00;;
40154;SDS011;25875;48.202;16.334;2022-08-02T14:26:36;3.97;;;2.70;;
40154;SDS011;25875;48.202;16.334;2022-08-02T14:29:04;3.65;;;2.58;;
40154;SDS011;25875;48.202;16.334;2022-08-02T14:31:31;3.05;;;2.20;;
40154;SDS011;25875;48.202;16.334;2022-08-02T14:33:58;3.03;;;2.13;;
40154;SDS011;25875;48.202;16.334;2022-08-02T14:36:26;4.20;;;2.55;;
40154;SDS011;25875;48.202;16.334;2022-08-02T14:38:53;3.33;;;2.40;;
40154;SDS011;25875;48.202;16.334;2022-08-02T14:41:20;4.60;;;3.03;;
40154;SDS011;25875;48.202;16.334;2022-08-02T14:43:48;5.05;;;4.15;;
40154;SDS011;25875;48.202;16.334;2022-08-02T14:46:34;5.47;;;3.92;;
40154;SDS011;25875;48.202;16.334;2022-08-02T14:49:03;3.10;;;2.10;;
40154;SDS011;25875;48.202;16.334;2022-08-02T14:51:32;17.35;;;12.77;;
40154;SDS011;25875;48.202;16.334;2022-08-02T14:54:00;9.10;;;5.80;;
40154;SDS011;25875;48.202;16.334;2022-08-02T14:56:30;14.40;;;10.80;;
40154;SDS011;25875;48.202;16.334;2022-08-02T14:58:58;13.95;;;10.40;;
40154;SDS011;25875;48.202;16.334;2022-08-02T15:01:26;16.52;;;12.20;;
40154;SDS011;25875;48.202;16.334;2022-08-02T15:03:54;53.95;;;40.47;;
40154;SDS011;25875;48.202;16.334;2022-08-02T15:06:22;32.03;;;24.38;;